Time;durP1;ratioP1;P1;durP2;ratioP2;P2;SDS_P1;SDS_P2;PMS_P1;PMS_P2;Temp;Humidity;BMP_temperature;BMP_pressure;BME280_temperature;BME280_humidity;BME280_pressure;Samples;Min_cycle;Max_cycle;Signal;HPM_P1;HPM_P2
2022/12/02 03:50:07;;;;;;;23.30;9.18;;;6.30;91.10;;;;;;4792758;29;97216;-68
2022/12/02 03:52:32;;;;;;;26.90;10.27;;;6.30;90.90;;;;;;4791064;29;95288;-69
2022/12/02 03:54:58;;;;;;;25.08;9.75;;;6.30;90.90;;;;;;4798362;29;91427;-70
2022/12/02 03:57:24;;;;;;;28.08;10.25;;;6.20;91.10;;;;;;4802191;29;92181;-70
2022/12/02 03:59:50;;;;;;;23.60;9.48;;;6.20;91.20;;;;;;4803541;29;93015;-68
2022/12/02 04:02:16;;;;;;;25.42;10.45;;;6.20;91.20;;;;;;4787486;29;93942;-70
2022/12/02 04:04:41;;;;;;;23.98;10.18;;;6.20;91.10;;;;;;4800568;29;91728;-69
2022/12/02 04:07:07;;;;;;;28.33;10.48;;;6.20;91.10;;;;;;4784261;29;92556;-69
2022/12/02 04:09:33;;;;;;;25.23;9.20;;;6.20;91.10;;;;;;4812072;29;92817;-69
2022/12/02 04:11:58;;;;;;;23.67;9.43;;;6.20;91.10;;;;;;4804037;29;91803;-69
2022/12/02 04:14:24;;;;;;;25.13;10.20;;;6.20;91.20;;;;;;4789644;29;92500;-70
2022/12/02 04:16:50;;;;;;;25.70;10.60;;;6.20;91.20;;;;;;4802486;29;91965;-69
2022/12/02 04:19:15;;;;;;;29.08;10.20;;;6.20;91.20;;;;;;4807281;29;94964;-69
2022/12/02 04:21:41;;;;;;;26.65;10.50;;;6.10;91.30;;;;;;4807512;29;92409;-70
2022/12/02 04:24:07;;;;;;;26.27;9.98;;;6.20;91.20;;;;;;4791026;29;91831;-69
2022/12/02 04:26:32;;;;;;;24.25;10.23;;;6.20;91.10;;;;;;4806482;29;92453;-71
2022/12/02 04:28:58;;;;;;;28.00;9.88;;;6.20;91.10;;;;;;4806436;29;92284;-70
2022/12/02 04:31:24;;;;;;;27.23;10.10;;;6.20;91.10;;;;;;4806951;29;92518;-71
2022/12/02 04:33:50;;;;;;;23.65;9.25;;;6.30;91.10;;;;;;4802177;29;92691;-70
2022/12/02 04:36:15;;;;;;;22.50;9.10;;;6.20;90.90;;;;;;4806242;29;92022;-68
2022/12/02 04:38:41;;;;;;;24.58;9.10;;;6.30;90.80;;;;;;4812393;29;94213;-70
2022/12/02 04:41:07;;;;;;;23.23;9.57;;;6.30;90.70;;;;;;4813804;29;93071;-68
2022/12/02 04:43:32;;;;;;;23.45;8.98;;;6.30;90.60;;;;;;4805584;29;91360;-68
2022/12/02 04:45:58;;;;;;;24.40;9.57;;;6.20;90.80;;;;;;4790177;29;92178;-67
2022/12/02 04:48:23;;;;;;;25.15;9.45;;;6.20;90.60;;;;;;4800219;29;92397;-67
2022/12/02 04:50:49;;;;;;;23.70;9.05;;;6.20;90.70;;;;;;4804138;29;92208;-69
2022/12/02 04:53:15;;;;;;;24.80;9.50;;;6.20;90.70;;;;;;4815399;29;92044;-69
2022/12/02 04:55:42;;;;;;;22.90;9.25;;;6.20;90.40;;;;;;4805756;29;90686;-69
2022/12/02 04:58:08;;;;;;;23.30;9.63;;;6.20;90.50;;;;;;4794764;29;93004;-69
2022/12/02 05:00:33;;;;;;;24.33;8.55;;;6.20;90.50;;;;;;4792459;29;91991;-69
2022/12/02 05:02:59;;;;;;;22.48;9.35;;;6.20;90.50;;;;;;4797847;29;94372;-69
2022/12/02 05:05:25;;;;;;;25.55;9.90;;;6.20;90.40;;;;;;4806756;29;92587;-69
2022/12/02 05:07:50;;;;;;;22.33;9.35;;;6.20;90.50;;;;;;4802673;29;91765;-69
2022/12/02 05:10:16;;;;;;;22.92;9.02;;;6.20;90.80;;;;;;4800737;29;92412;-69
2022/12/02 05:12:42;;;;;;;24.17;8.77;;;6.20;90.50;;;;;;4804320;29;91469;-69
2022/12/02 05:15:08;;;;;;;23.08;9.20;;;6.30;90.60;;;;;;4802576;29;91409;-69
2022/12/02 05:17:33;;;;;;;24.45;9.48;;;6.30;90.50;;;;;;4803377;29;92420;-69
2022/12/02 05:19:59;;;;;;;22.52;8.93;;;6.30;90.40;;;;;;4808779;29;92306;-69
2022/12/02 05:22:25;;;;;;;22.60;8.73;;;6.30;90.30;;;;;;4807572;29;91342;-68
2022/12/02 05:24:50;;;;;;;21.83;8.18;;;6.30;90.20;;;;;;4813065;29;91904;-68
2022/12/02 05:27:16;;;;;;;22.92;8.68;;;6.30;90.30;;;;;;4802288;29;92761;-68
2022/12/02 05:29:42;;;;;;;23.90;9.43;;;6.30;90.30;;;;;;4811534;29;94162;-68
2022/12/02 05:32:07;;;;;;;24.42;9.30;;;6.20;90.30;;;;;;4804260;29;91783;-68
2022/12/02 05:34:33;;;;;;;24.70;8.75;;;6.20;90.40;;;;;;4802721;29;91633;-68
2022/12/02 05:36:59;;;;;;;24.17;9.13;;;6.20;90.50;;;;;;4808442;29;91861;-68
2022/12/02 05:39:24;;;;;;;24.65;9.60;;;6.10;90.50;;;;;;4801450;29;91692;-68
2022/12/02 05:41:51;;;;;;;21.23;8.75;;;6.20;90.50;;;;;;4800230;29;91705;-67
2022/12/02 05:44:21;;;;;;;24.02;9.68;;;6.20;90.50;;;;;;4793397;29;91333;-69
2022/12/02 05:46:48;;;;;;;22.63;8.68;;;6.20;90.60;;;;;;4802154;29;92455;-69
2022/12/02 05:49:22;;;;;;;23.35;8.93;;;6.20;90.50;;;;;;4805164;29;92250;-68
2022/12/02 05:51:58;;;;;;;23.20;9.15;;;6.20;90.40;;;;;;4806889;29;92220;-69
2022/12/02 05:54:24;;;;;;;23.27;9.48;;;6.20;90.40;;;;;;4797300;29;91596;-69
2022/12/02 05:56:50;;;;;;;21.85;8.95;;;6.20;90.30;;;;;;4801721;29;92186;-69
2022/12/02 05:59:18;;;;;;;21.90;8.55;;;6.20;90.40;;;;;;4802961;29;92121;-69
2022/12/02 06:01:49;;;;;;;25.55;8.98;;;6.20;90.50;;;;;;4799571;29;91958;-68
2022/12/02 06:04:16;;;;;;;;;;;6.20;90.50;;;;;;4799080;29;91792;-68
2022/12/02 06:06:41;;;;;;;23.20;8.55;;;6.20;90.50;;;;;;4801519;29;93412;-68
2022/12/02 06:09:23;;;;;;;22.92;8.43;;;6.20;90.40;;;;;;4800220;29;91935;-69
2022/12/02 06:11:49;;;;;;;21.65;8.57;;;6.20;90.50;;;;;;4799819;29;91819;-69
2022/12/02 06:14:23;;;;;;;24.58;9.05;;;6.20;90.50;;;;;;4790639;29;91664;-69
2022/12/02 06:16:56;;;;;;;21.70;8.25;;;6.20;90.50;;;;;;4794524;29;94199;-70
2022/12/02 06:19:39;;;;;;;23.27;8.77;;;6.20;90.50;;;;;;4793148;29;92478;-68
2022/12/02 06:22:10;;;;;;;;;;;6.30;90.50;;;;;;4803563;29;91961;-68
2022/12/02 06:24:36;;;;;;;19.83;7.70;;;6.30;90.50;;;;;;4796032;29;91728;-68
2022/12/02 06:27:02;;;;;;;22.27;8.82;;;6.30;90.40;;;;;;4794329;29;92549;-69
2022/12/02 06:29:30;;;;;;;22.35;8.80;;;6.20;90.40;;;;;;4796678;29;92921;-68
2022/12/02 06:31:58;;;;;;;24.42;9.40;;;6.20;90.60;;;;;;4800465;29;91482;-68
2022/12/02 06:34:40;;;;;;;22.17;8.30;;;6.20;90.80;;;;;;4778531;29;91033;-69
2022/12/02 06:37:14;;;;;;;22.08;8.80;;;6.30;90.50;;;;;;4795565;29;91924;-68
2022/12/02 06:39:41;;;;;;;23.08;9.35;;;6.30;90.50;;;;;;4796607;29;91828;-68
2022/12/02 06:42:34;;;;;;;24.05;9.13;;;6.30;90.50;;;;;;4802430;29;92314;-68
2022/12/02 06:45:12;;;;;;;21.25;8.52;;;6.30;90.50;;;;;;4803469;29;92066;-69
2022/12/02 06:48:01;;;;;;;23.48;8.77;;;6.30;90.50;;;;;;4792815;29;92374;-68
2022/12/02 06:50:30;;;;;;;25.17;9.82;;;6.30;90.70;;;;;;4787618;29;93018;-68
2022/12/02 06:53:08;;;;;;;25.38;9.13;;;6.30;90.40;;;;;;4803684;29;91817;-68
2022/12/02 06:55:35;;;;;;;22.90;8.80;;;6.30;90.40;;;;;;4798230;29;92039;-68
2022/12/02 06:58:27;;;;;;;21.15;8.60;;;6.30;90.40;;;;;;4803975;29;92463;-68
2022/12/02 07:00:59;;;;;;;22.58;9.13;;;6.30;90.50;;;;;;4802368;29;91533;-68
2022/12/02 07:03:33;;;;;;;22.70;8.60;;;6.30;90.60;;;;;;4796315;29;92308;-68
2022/12/02 07:06:17;;;;;;;22.65;8.32;;;6.20;90.30;;;;;;4801767;29;91986;-68
2022/12/02 07:08:43;;;;;;;22.55;9.38;;;6.20;90.70;;;;;;4785977;29;94792;-68
2022/12/02 07:11:18;;;;;;;25.80;9.13;;;6.20;90.50;;;;;;4795814;29;93112;-69
2022/12/02 07:13:44;;;;;;;24.88;9.32;;;6.30;90.50;;;;;;4801127;29;91724;-68
2022/12/02 07:16:32;;;;;;;22.33;8.63;;;6.20;90.50;;;;;;4799451;29;91358;-68
2022/12/02 07:18:59;;;;;;;25.00;9.63;;;6.30;90.30;;;;;;4798164;29;92522;-68
2022/12/02 07:21:25;;;;;;;23.58;9.02;;;6.30;90.40;;;;;;4797831;29;92596;-68
2022/12/02 07:23:50;;;;;;;24.88;9.65;;;6.30;90.50;;;;;;4804903;29;91749;-69
2022/12/02 07:26:17;;;;;;;27.60;8.93;;;6.30;90.70;;;;;;4801649;29;90996;-68
2022/12/02 07:28:44;;;;;;;25.90;9.32;;;6.30;90.60;;;;;;4798330;29;92882;-68
2022/12/02 07:31:21;;;;;;;23.00;9.00;;;6.30;90.70;;;;;;4805811;29;92110;-68
2022/12/02 07:33:47;;;;;;;25.25;10.13;;;6.30;90.70;;;;;;4806579;29;92684;-68
2022/12/02 07:36:12;;;;;;;22.02;9.00;;;6.30;90.70;;;;;;4803144;29;92048;-68
2022/12/02 07:38:38;;;;;;;23.50;9.10;;;6.30;90.50;;;;;;4798489;29;93717;-69
2022/12/02 07:41:04;;;;;;;23.30;9.32;;;6.30;90.40;;;;;;4802396;29;92083;-68
2022/12/02 07:43:31;;;;;;;24.98;9.27;;;6.30;90.50;;;;;;4807615;29;91340;-68
2022/12/02 07:45:57;;;;;;;24.23;9.32;;;6.20;90.50;;;;;;4811244;29;91685;-68
2022/12/02 07:48:22;;;;;;;23.20;9.63;;;6.30;90.50;;;;;;4804579;29;92497;-69
2022/12/02 07:50:48;;;;;;;21.45;9.27;;;6.30;90.40;;;;;;4798128;29;92188;-68
2022/12/02 07:53:14;;;;;;;23.45;9.52;;;6.30;90.50;;;;;;4804396;29;92174;-69
2022/12/02 07:55:40;;;;;;;24.02;9.55;;;6.30;90.30;;;;;;4799158;29;92028;-68
2022/12/02 07:58:06;;;;;;;23.08;9.55;;;6.30;90.20;;;;;;4803585;29;94629;-69
2022/12/02 08:00:31;;;;;;;24.75;9.32;;;6.20;90.20;;;;;;4803492;29;92804;-69
2022/12/02 08:02:57;;;;;;;23.38;8.93;;;6.20;90.20;;;;;;4801455;29;91379;-68
2022/12/02 08:05:23;;;;;;;21.20;8.57;;;6.30;90.30;;;;;;4804619;29;91364;-69
2022/12/02 08:07:49;;;;;;;25.10;9.43;;;6.30;90.30;;;;;;4803281;29;93133;-69
2022/12/02 08:10:16;;;;;;;24.77;9.75;;;6.30;90.30;;;;;;4801458;29;92143;-69
2022/12/02 08:12:41;;;;;;;24.52;10.10;;;6.30;90.30;;;;;;4801639;29;91365;-69
2022/12/02 08:15:09;;;;;;;30.60;11.13;;;6.30;90.00;;;;;;4805316;29;90586;-69
2022/12/02 08:17:35;;;;;;;24.35;9.82;;;6.40;90.20;;;;;;4806195;29;94186;-68
2022/12/02 08:20:01;;;;;;;23.88;10.00;;;6.30;90.10;;;;;;4802703;29;92015;-69
2022/12/02 08:22:27;;;;;;;23.25;9.48;;;6.40;89.80;;;;;;4802850;29;92717;-69
2022/12/02 08:24:54;;;;;;;24.48;9.43;;;6.40;90.00;;;;;;4802532;29;92388;-69
2022/12/02 08:27:20;;;;;;;25.48;10.10;;;6.40;90.00;;;;;;4798388;29;91905;-68
2022/12/02 08:29:48;;;;;;;22.40;9.25;;;6.50;89.50;;;;;;4796624;29;92477;-68
2022/12/02 08:32:17;;;;;;;20.63;8.82;;;6.40;89.60;;;;;;4806955;29;92196;-69
2022/12/02 08:34:43;;;;;;;21.85;9.07;;;6.50;89.50;;;;;;4801064;29;92590;-69
2022/12/02 08:37:09;;;;;;;22.95;8.85;;;6.50;89.20;;;;;;4804199;29;92230;-70
2022/12/02 08:39:35;;;;;;;20.55;8.60;;;6.50;89.10;;;;;;4806792;29;91530;-68
2022/12/02 08:42:01;;;;;;;21.40;8.98;;;6.60;88.60;;;;;;4804328;29;91675;-68
2022/12/02 08:44:27;;;;;;;25.63;9.88;;;6.60;88.90;;;;;;4809243;29;92639;-68
2022/12/02 08:46:53;;;;;;;20.48;8.68;;;6.60;88.90;;;;;;4800233;29;93783;-70
2022/12/02 08:49:18;;;;;;;21.05;8.38;;;6.60;88.40;;;;;;4802529;29;92456;-68
2022/12/02 08:51:44;;;;;;;22.75;9.20;;;6.60;88.50;;;;;;4807148;29;91332;-69
2022/12/02 08:54:10;;;;;;;22.25;9.65;;;6.70;88.40;;;;;;4803595;29;91658;-69
2022/12/02 08:56:36;;;;;;;19.80;8.30;;;6.80;87.80;;;;;;4801759;29;92679;-68
2022/12/02 08:59:02;;;;;;;19.30;8.43;;;6.70;87.90;;;;;;4800914;29;91504;-68
2022/12/02 09:01:28;;;;;;;20.13;7.95;;;6.80;87.90;;;;;;4805230;29;91869;-68
2022/12/02 09:03:54;;;;;;;19.73;7.75;;;6.80;87.90;;;;;;4801099;29;91007;-68
2022/12/02 09:06:19;;;;;;;21.55;7.65;;;6.70;87.30;;;;;;4804857;29;92664;-69
2022/12/02 09:08:45;;;;;;;21.52;7.70;;;6.80;87.00;;;;;;4804869;29;91861;-69
2022/12/02 09:11:12;;;;;;;21.85;8.23;;;6.80;86.60;;;;;;4806814;29;93344;-68
2022/12/02 09:13:37;;;;;;;19.20;7.75;;;6.90;86.70;;;;;;4798046;29;91722;-69
2022/12/02 09:16:03;;;;;;;23.02;8.90;;;7.00;86.90;;;;;;4802767;29;92675;-68
2022/12/02 09:18:29;;;;;;;22.55;8.27;;;7.00;86.10;;;;;;4802993;29;92049;-69
2022/12/02 09:20:55;;;;;;;23.63;8.68;;;7.00;86.40;;;;;;4802245;29;91816;-69
2022/12/02 09:23:20;;;;;;;26.20;9.70;;;7.00;87.30;;;;;;4799720;29;92206;-69
2022/12/02 09:25:46;;;;;;;25.05;10.30;;;7.00;87.90;;;;;;4807963;29;92713;-69
2022/12/02 09:28:12;;;;;;;26.75;10.88;;;7.00;87.60;;;;;;4807479;29;92127;-69
2022/12/02 09:30:37;;;;;;;28.33;10.23;;;6.90;88.30;;;;;;4804397;29;91360;-69
2022/12/02 09:33:03;;;;;;;24.45;10.48;;;6.90;88.30;;;;;;4802686;29;91816;-69
2022/12/02 09:35:29;;;;;;;27.45;10.52;;;6.90;88.90;;;;;;4801588;29;94222;-69
2022/12/02 09:37:54;;;;;;;30.13;11.18;;;6.90;88.90;;;;;;4798226;29;93148;-69
2022/12/02 09:40:20;;;;;;;25.70;10.52;;;6.90;89.20;;;;;;4805614;29;91758;-70
2022/12/02 09:42:46;;;;;;;30.33;11.07;;;7.00;89.70;;;;;;4801352;29;91812;-69
2022/12/02 09:45:12;;;;;;;30.25;10.13;;;7.00;89.30;;;;;;4804386;29;93415;-70
2022/12/02 09:47:39;;;;;;;30.23;11.23;;;7.10;88.70;;;;;;4800262;29;92457;-69
2022/12/02 09:50:06;;;;;;;28.67;9.85;;;7.10;88.80;;;;;;4806816;29;91875;-69
2022/12/02 09:52:32;;;;;;;29.45;10.82;;;7.20;88.40;;;;;;4798914;29;91352;-69
2022/12/02 09:55:00;;;;;;;25.95;10.43;;;7.20;88.20;;;;;;4806716;29;92573;-69
2022/12/02 09:57:32;;;;;;;27.35;10.35;;;7.30;87.90;;;;;;4805015;29;92397;-69
2022/12/02 10:00:00;;;;;;;31.35;10.65;;;7.30;87.30;;;;;;4802693;29;93329;-69
2022/12/02 10:02:29;;;;;;;24.80;9.82;;;7.40;87.30;;;;;;4799278;29;92117;-69
2022/12/02 10:05:10;;;;;;;27.95;9.90;;;7.40;86.20;;;;;;4804467;29;92966;-68
2022/12/02 10:07:36;;;;;;;24.67;10.25;;;7.40;85.20;;;;;;4801603;29;91772;-69
2022/12/02 10:10:02;;;;;;;25.83;9.75;;;7.40;85.40;;;;;;4802121;29;92460;-70
2022/12/02 10:12:27;;;;;;;22.65;9.70;;;7.30;85.30;;;;;;4801529;29;91928;-69
2022/12/02 10:14:53;;;;;;;26.08;10.65;;;7.40;85.80;;;;;;4799862;29;92270;-68
2022/12/02 10:17:20;;;;;;;23.67;10.35;;;7.50;85.10;;;;;;4799717;29;91626;-69
2022/12/02 10:19:48;;;;;;;26.15;9.45;;;7.60;85.20;;;;;;4805910;29;91857;-68
2022/12/02 10:22:19;;;;;;;29.13;9.45;;;7.60;85.00;;;;;;4800073;29;91956;-69
2022/12/02 10:24:45;;;;;;;25.40;9.60;;;7.60;84.80;;;;;;4804269;29;93486;-69
2022/12/02 10:27:31;;;;;;;22.50;9.35;;;7.60;84.20;;;;;;4802213;29;92471;-69
2022/12/02 10:30:17;;;;;;;26.83;9.60;;;7.60;84.00;;;;;;4800585;29;91781;-68
2022/12/02 10:33:00;;;;;;;25.50;9.55;;;7.70;84.30;;;;;;4799446;29;92417;-69
2022/12/02 10:35:28;;;;;;;24.67;9.27;;;7.80;85.00;;;;;;4798830;29;92607;-69
2022/12/02 10:37:54;;;;;;;24.83;9.80;;;8.00;83.90;;;;;;4804533;29;92257;-70
2022/12/02 10:40:26;;;;;;;23.27;8.73;;;8.00;82.90;;;;;;4799907;29;91749;-68
2022/12/02 10:43:14;;;;;;;23.23;8.88;;;8.10;82.10;;;;;;4799937;29;91762;-70
2022/12/02 10:45:39;;;;;;;22.67;9.00;;;8.10;81.00;;;;;;4793219;29;93538;-68
2022/12/02 10:48:23;;;;;;;21.80;9.18;;;8.10;82.00;;;;;;4800647;29;93131;-69
2022/12/02 10:50:48;;;;;;;30.85;10.07;;;8.20;81.10;;;;;;4793437;29;92931;-68
2022/12/02 10:53:17;;;;;;;24.20;9.63;;;8.20;82.80;;;;;;4796457;29;92180;-69
2022/12/02 10:55:44;;;;;;;22.20;9.35;;;8.20;81.70;;;;;;4797210;29;93183;-68
2022/12/02 10:58:14;;;;;;;25.65;8.93;;;8.30;81.80;;;;;;4800470;29;92056;-68
2022/12/02 11:00:40;;;;;;;22.52;9.15;;;8.30;80.90;;;;;;4794929;29;91925;-68
2022/12/02 11:03:06;;;;;;;20.13;8.68;;;8.30;80.90;;;;;;4799230;29;92076;-69
2022/12/02 11:05:37;;;;;;;14.82;6.30;;;8.30;80.30;;;;;;4792800;29;91720;-68
2022/12/02 11:08:17;;;;;;;22.08;9.23;;;8.20;77.80;;;;;;4804201;29;91972;-68
2022/12/02 11:10:45;;;;;;;23.15;9.35;;;8.10;80.30;;;;;;4805726;29;91277;-69
2022/12/02 11:13:16;;;;;;;22.50;9.30;;;8.20;80.80;;;;;;4808577;29;91923;-69
2022/12/02 11:15:47;;;;;;;21.67;8.77;;;8.20;80.90;;;;;;4798944;29;93356;-68
2022/12/02 11:18:21;;;;;;;25.13;9.52;;;8.20;80.50;;;;;;4797104;29;92942;-68
2022/12/02 11:20:47;;;;;;;26.83;10.30;;;8.00;82.50;;;;;;4793828;29;91582;-69
2022/12/02 11:23:19;;;;;;;22.58;9.02;;;8.10;81.40;;;;;;4801789;29;91704;-68
2022/12/02 11:25:49;;;;;;;26.10;9.35;;;8.00;81.20;;;;;;4804940;29;92551;-68
2022/12/02 11:28:17;;;;;;;21.77;8.40;;;7.90;82.30;;;;;;4794747;29;92336;-68
2022/12/02 11:30:46;;;;;;;24.15;8.27;;;7.90;83.20;;;;;;4802385;29;91453;-68
2022/12/02 11:33:13;;;;;;;27.35;9.77;;;7.90;86.60;;;;;;4809677;29;90560;-68
2022/12/02 11:36:10;;;;;;;23.65;9.73;;;8.10;83.20;;;;;;4801960;29;93043;-68
2022/12/02 11:38:51;;;;;;;18.25;8.43;;;8.10;84.60;;;;;;4807937;29;92460;-68
2022/12/02 11:41:18;;;;;;;21.88;8.77;;;8.10;81.30;;;;;;4793004;29;92285;-69
2022/12/02 11:43:47;;;;;;;24.52;8.98;;;8.00;80.10;;;;;;4790493;29;92120;-69
2022/12/02 11:46:15;;;;;;;20.55;8.57;;;7.90;80.30;;;;;;4792160;29;91788;-69
2022/12/02 11:48:46;;;;;;;21.17;8.43;;;7.80;81.40;;;;;;4775288;29;93273;-69
2022/12/02 11:51:27;;;;;;;22.23;8.73;;;7.70;81.80;;;;;;4788101;29;91492;-67
2022/12/02 11:53:54;;;;;;;20.05;8.23;;;7.70;82.20;;;;;;4792936;29;91403;-68
2022/12/02 11:56:20;;;;;;;22.27;8.85;;;7.70;81.40;;;;;;4794164;29;92484;-68
2022/12/02 11:58:45;;;;;;;26.25;9.80;;;7.70;81.80;;;;;;4792074;29;91418;-68
2022/12/02 12:01:11;;;;;;;21.58;8.32;;;7.70;82.40;;;;;;4793647;29;91437;-68
2022/12/02 12:03:41;;;;;;;27.40;10.40;;;7.70;81.90;;;;;;4795669;29;91431;-68
2022/12/02 12:06:11;;;;;;;21.70;9.00;;;7.60;82.50;;;;;;4793311;29;93700;-68
2022/12/02 12:08:39;;;;;;;25.85;9.35;;;7.60;82.80;;;;;;4792528;29;93694;-67
2022/12/02 12:11:15;;;;;;;21.88;9.27;;;7.50;82.90;;;;;;4792108;29;92927;-67
2022/12/02 12:14:12;;;;;;;24.80;8.50;;;7.40;83.40;;;;;;4795078;29;92453;-69
2022/12/02 12:16:45;;;;;;;25.02;10.25;;;7.40;83.40;;;;;;4798840;29;92495;-69
2022/12/02 12:19:10;;;;;;;25.02;9.75;;;7.40;84.30;;;;;;4801913;29;91897;-68
2022/12/02 12:21:43;;;;;;;24.20;10.77;;;7.40;84.50;;;;;;4789667;29;92099;-67
2022/12/02 12:24:22;;;;;;;24.20;9.70;;;7.60;84.60;;;;;;4796581;29;92105;-69
2022/12/02 12:26:56;;;;;;;24.80;10.38;;;7.60;84.50;;;;;;4792853;29;92318;-68
2022/12/02 12:29:29;;;;;;;23.92;9.95;;;7.60;84.70;;;;;;4797816;29;94186;-68
2022/12/02 12:31:55;;;;;;;23.80;9.73;;;7.70;83.70;;;;;;4793983;29;92850;-68
2022/12/02 12:34:21;;;;;;;26.25;11.20;;;7.70;84.60;;;;;;4792106;29;91945;-68
2022/12/02 12:36:47;;;;;;;21.77;9.10;;;7.70;84.00;;;;;;4790162;29;92831;-69
2022/12/02 12:39:14;;;;;;;23.90;8.55;;;7.80;83.50;;;;;;4797348;29;93094;-67
2022/12/02 12:41:39;;;;;;;25.77;9.48;;;7.80;82.60;;;;;;4802044;29;92116;-67
2022/12/02 12:44:05;;;;;;;22.88;8.35;;;7.80;82.50;;;;;;4796011;29;91509;-68
2022/12/02 12:46:31;;;;;;;20.52;8.82;;;7.80;81.70;;;;;;4796562;29;92411;-68
2022/12/02 12:48:58;;;;;;;20.83;8.63;;;7.90;81.60;;;;;;4799354;29;92528;-69
2022/12/02 12:51:24;;;;;;;18.42;8.23;;;8.00;81.40;;;;;;4802902;29;92107;-68
2022/12/02 12:53:50;;;;;;;19.77;8.07;;;8.10;81.10;;;;;;4773295;29;91777;-68
2022/12/02 12:56:16;;;;;;;25.35;8.35;;;8.20;81.00;;;;;;4790561;29;94050;-69
2022/12/02 12:58:41;;;;;;;17.55;7.30;;;8.30;79.00;;;;;;4795795;29;93126;-68
2022/12/02 13:01:07;;;;;;;17.23;6.53;;;8.20;78.40;;;;;;4797906;29;92122;-67
2022/12/02 13:03:33;;;;;;;18.33;7.72;;;8.20;77.40;;;;;;4799688;29;91465;-69
2022/12/02 13:05:59;;;;;;;22.27;7.75;;;8.20;78.90;;;;;;4802077;29;92173;-67
2022/12/02 13:08:25;;;;;;;17.92;7.25;;;8.40;79.00;;;;;;4800996;29;92356;-68
2022/12/02 13:10:51;;;;;;;18.95;7.90;;;8.40;78.00;;;;;;4806119;29;92131;-67
2022/12/02 13:13:16;;;;;;;31.02;6.90;;;8.50;78.30;;;;;;4793459;29;92152;-67
2022/12/02 13:15:42;;;;;;;18.13;6.60;;;8.50;77.70;;;;;;4780639;29;94106;-68
2022/12/02 13:18:08;;;;;;;17.98;6.45;;;8.50;77.00;;;;;;4792467;29;93028;-68
2022/12/02 13:20:34;;;;;;;15.35;6.57;;;8.50;76.60;;;;;;4798381;29;94190;-68
2022/12/02 13:22:59;;;;;;;18.73;6.60;;;8.50;76.20;;;;;;4797561;29;92128;-69
2022/12/02 13:25:25;;;;;;;17.13;7.05;;;8.40;76.50;;;;;;4794385;29;92690;-68
2022/12/02 13:27:51;;;;;;;16.20;6.70;;;8.40;76.50;;;;;;4791823;29;92549;-68
2022/12/02 13:30:19;;;;;;;16.70;6.43;;;8.30;77.30;;;;;;4795717;29;91775;-67
2022/12/02 13:32:45;;;;;;;17.92;6.47;;;8.20;76.30;;;;;;4807161;29;92413;-68
2022/12/02 13:35:12;;;;;;;22.02;6.82;;;8.10;76.10;;;;;;4807703;29;92150;-67
2022/12/02 13:37:38;;;;;;;17.25;7.18;;;8.10;76.70;;;;;;4789652;29;91551;-68
2022/12/02 13:40:07;;;;;;;13.38;5.90;;;8.00;77.20;;;;;;4793528;29;91409;-68
2022/12/02 13:42:33;;;;;;;17.83;6.65;;;7.90;76.80;;;;;;4797985;29;92351;-67
2022/12/02 13:44:58;;;;;;;18.83;6.50;;;7.90;77.50;;;;;;4798568;29;93035;-68
2022/12/02 13:47:24;;;;;;;16.58;6.88;;;7.80;78.00;;;;;;4792607;29;92371;-67
2022/12/02 13:49:50;;;;;;;16.95;7.03;;;7.80;77.40;;;;;;4779944;29;91782;-68
2022/12/02 13:52:16;;;;;;;16.98;6.95;;;7.80;77.90;;;;;;4794224;29;91978;-67
2022/12/02 13:54:42;;;;;;;19.58;6.75;;;7.70;78.30;;;;;;4797725;29;93684;-68
2022/12/02 13:57:08;;;;;;;16.58;7.07;;;7.80;78.90;;;;;;4799406;29;92836;-68
2022/12/02 13:59:34;;;;;;;17.77;6.25;;;7.80;78.60;;;;;;4804169;29;91292;-68
2022/12/02 14:01:59;;;;;;;21.80;7.40;;;7.80;78.50;;;;;;4803694;29;90612;-68
2022/12/02 14:04:25;;;;;;;20.27;7.18;;;7.90;78.70;;;;;;4801931;29;91919;-69
2022/12/02 14:06:51;;;;;;;17.50;6.90;;;7.90;78.10;;;;;;4805021;29;92457;-68
2022/12/02 14:09:17;;;;;;;16.77;7.15;;;7.80;78.80;;;;;;4801500;29;92887;-69
2022/12/02 14:11:42;;;;;;;20.13;7.53;;;7.80;78.40;;;;;;4800052;29;92283;-70
2022/12/02 14:14:08;;;;;;;21.40;7.32;;;7.80;78.60;;;;;;4796731;29;92333;-69
2022/12/02 14:16:34;;;;;;;17.35;7.18;;;7.70;78.60;;;;;;4795638;29;92412;-69
2022/12/02 14:19:00;;;;;;;16.95;7.20;;;7.70;79.50;;;;;;4799008;29;91405;-69
2022/12/02 14:21:26;;;;;;;17.95;6.82;;;7.60;79.40;;;;;;4802584;29;92010;-69
2022/12/02 14:23:53;;;;;;;21.73;7.38;;;7.70;79.00;;;;;;4794291;29;92743;-70
2022/12/02 14:26:18;;;;;;;27.38;7.57;;;7.70;79.00;;;;;;4802698;29;91958;-70
2022/12/02 14:28:44;;;;;;;18.13;7.63;;;7.60;79.20;;;;;;4794733;29;92991;-69
2022/12/02 14:31:10;;;;;;;19.88;7.68;;;7.50;79.40;;;;;;4783895;29;92214;-69
2022/12/02 14:33:35;;;;;;;20.48;8.07;;;7.50;80.10;;;;;;4796175;29;93922;-69
2022/12/02 14:36:01;;;;;;;20.85;7.88;;;7.60;81.10;;;;;;4792389;29;92667;-69
2022/12/02 14:38:27;;;;;;;21.38;7.63;;;7.60;80.80;;;;;;4793813;29;92020;-69
2022/12/02 14:40:52;;;;;;;21.27;8.63;;;7.50;81.00;;;;;;4799635;29;91480;-69
2022/12/02 14:43:18;;;;;;;17.23;6.45;;;7.40;81.10;;;;;;4786073;29;93992;-69
2022/12/02 14:45:44;;;;;;;18.42;7.25;;;7.30;80.10;;;;;;4802061;29;92072;-69
2022/12/02 14:48:09;;;;;;;21.73;6.68;;;7.20;80.50;;;;;;4793557;29;93052;-70
2022/12/02 14:50:35;;;;;;;19.63;6.95;;;7.20;80.60;;;;;;4795556;29;91452;-68
2022/12/02 14:53:01;;;;;;;19.08;6.95;;;7.20;80.80;;;;;;4796970;29;92346;-68
2022/12/02 14:55:26;;;;;;;21.13;8.13;;;7.20;81.10;;;;;;4794277;29;92522;-67
2022/12/02 14:57:52;;;;;;;26.02;8.23;;;7.00;82.00;;;;;;4797676;29;93794;-67
2022/12/02 15:00:19;;;;;;;22.92;8.15;;;7.10;83.00;;;;;;4798094;29;92758;-68
2022/12/02 15:02:46;;;;;;;21.60;9.57;;;7.20;83.40;;;;;;4789986;29;92192;-68
2022/12/02 15:05:17;;;;;;;22.98;8.38;;;7.20;82.90;;;;;;4792223;29;92188;-69
2022/12/02 15:07:42;;;;;;;22.48;8.65;;;7.20;82.30;;;;;;4796889;29;93317;-67
2022/12/02 15:10:10;;;;;;;22.15;8.38;;;7.20;82.10;;;;;;4795667;29;91730;-68
2022/12/02 15:12:35;;;;;;;21.30;8.35;;;7.20;82.50;;;;;;4795278;29;92011;-67
2022/12/02 15:15:01;;;;;;;23.95;7.53;;;7.20;82.40;;;;;;4793255;29;91258;-68
2022/12/02 15:17:27;;;;;;;22.75;8.82;;;7.10;82.70;;;;;;4796305;29;91869;-69
2022/12/02 15:19:55;;;;;;;21.17;7.72;;;7.00;81.70;;;;;;4792817;29;91502;-68
2022/12/02 15:22:22;;;;;;;19.88;7.78;;;6.90;81.90;;;;;;4798762;29;94295;-68
2022/12/02 15:24:47;;;;;;;22.83;7.75;;;6.80;82.10;;;;;;4793550;29;92184;-67
2022/12/02 15:27:13;;;;;;;20.13;8.00;;;6.70;82.60;;;;;;4797921;29;92184;-68
2022/12/02 15:29:39;;;;;;;23.48;8.35;;;6.70;83.10;;;;;;4791803;29;92218;-69
2022/12/02 15:32:04;;;;;;;19.00;7.53;;;6.70;83.10;;;;;;4794380;29;93065;-69
2022/12/02 15:34:30;;;;;;;25.08;7.90;;;6.60;82.50;;;;;;4796787;29;92184;-68
2022/12/02 15:36:56;;;;;;;19.35;7.82;;;6.50;83.10;;;;;;4805097;29;91416;-69
2022/12/02 15:39:21;;;;;;;23.60;7.90;;;6.50;83.00;;;;;;4798506;29;91164;-68
2022/12/02 15:41:47;;;;;;;19.65;7.57;;;6.50;83.10;;;;;;4795839;29;92595;-68
2022/12/02 15:44:12;;;;;;;21.88;6.68;;;6.50;83.10;;;;;;4794924;29;92727;-67
2022/12/02 15:46:38;;;;;;;18.67;6.80;;;6.40;82.10;;;;;;4792874;29;92381;-67
2022/12/02 15:49:04;;;;;;;18.30;6.80;;;6.30;82.50;;;;;;4794001;29;92140;-67
2022/12/02 15:51:29;;;;;;;17.33;6.55;;;6.20;82.70;;;;;;4798680;29;92490;-67
2022/12/02 15:53:55;;;;;;;18.23;6.53;;;6.10;82.70;;;;;;4795581;29;91756;-67
2022/12/02 15:56:21;;;;;;;17.27;6.55;;;6.00;83.10;;;;;;4801554;29;91678;-67
2022/12/02 15:58:49;;;;;;;16.88;6.47;;;5.90;83.30;;;;;;4798514;29;92213;-67
2022/12/02 16:01:14;;;;;;;17.85;6.80;;;5.90;83.70;;;;;;4802470;29;91822;-67
2022/12/02 16:03:40;;;;;;;18.38;7.25;;;5.80;84.00;;;;;;4804753;29;92983;-67
2022/12/02 16:06:06;;;;;;;20.65;7.68;;;5.70;84.30;;;;;;4794615;29;92493;-67
2022/12/02 16:08:32;;;;;;;23.30;8.30;;;5.60;84.70;;;;;;4799600;29;92083;-66
2022/12/02 16:10:57;;;;;;;21.80;8.25;;;5.50;85.20;;;;;;4808258;29;93058;-67
2022/12/02 16:13:23;;;;;;;23.42;7.65;;;5.50;85.50;;;;;;4797176;29;93521;-67
2022/12/02 16:15:49;;;;;;;19.30;7.53;;;5.40;85.60;;;;;;4797260;29;91818;-68
2022/12/02 16:18:15;;;;;;;26.85;8.32;;;5.40;85.90;;;;;;4806704;29;91451;-67
2022/12/02 16:20:40;;;;;;;22.98;7.65;;;5.30;86.30;;;;;;4800299;29;92823;-67
2022/12/02 16:23:06;;;;;;;21.00;8.15;;;5.30;86.90;;;;;;4803541;29;91775;-67
2022/12/02 16:25:31;;;;;;;20.63;8.10;;;5.10;87.40;;;;;;4795355;29;91775;-66
2022/12/02 16:27:57;;;;;;;24.38;7.80;;;5.10;88.00;;;;;;4796581;29;91214;-67
2022/12/02 16:30:23;;;;;;;22.48;7.43;;;5.00;88.80;;;;;;4794798;29;92749;-67
2022/12/02 16:32:48;;;;;;;22.75;8.45;;;4.90;89.10;;;;;;4795284;29;92037;-68
2022/12/02 16:35:14;;;;;;;21.95;8.27;;;4.80;90.00;;;;;;4800833;29;92745;-67
2022/12/02 16:37:40;;;;;;;24.33;8.85;;;4.80;90.40;;;;;;4795748;29;91790;-67